sensor_id;sensor_type;location;lat;lon;timestamp;temperature;humidity
39345;DHT22;25061;51.954;6.996;2023-03-01T00:00:52;-1.00;99.90
39345;DHT22;25061;51.954;6.996;2023-03-01T00:03:17;-1.10;99.90
39345;DHT22;25061;51.954;6.996;2023-03-01T00:05:45;-1.20;99.90
39345;DHT22;25061;51.954;6.996;2023-03-01T00:08:10;-1.30;99.90
39345;DHT22;25061;51.954;6.996;2023-03-01T00:10:36;-1.40;99.90
39345;DHT22;25061;51.954;6.996;2023-03-01T00:13:02;-1.40;99.90
39345;DHT22;25061;51.954;6.996;2023-03-01T00:15:27;-1.40;99.90
39345;DHT22;25061;51.954;6.996;2023-03-01T00:17:53;-1.40;99.90
39345;DHT22;25061;51.954;6.996;2023-03-01T00:20:19;-1.40;99.90
39345;DHT22;25061;51.954;6.996;2023-03-01T00:22:45;-1.40;99.90
39345;DHT22;25061;51.954;6.996;2023-03-01T00:25:10;-1.50;99.90
39345;DHT22;25061;51.954;6.996;2023-03-01T00:27:36;-1.70;99.90
39345;DHT22;25061;51.954;6.996;2023-03-01T00:30:02;-1.70;99.90
39345;DHT22;25061;51.954;6.996;2023-03-01T00:32:28;-1.70;99.90
39345;DHT22;25061;51.954;6.996;2023-03-01T00:34:53;-1.60;99.90
39345;DHT22;25061;51.954;6.996;2023-03-01T00:37:22;-1.60;99.90
39345;DHT22;25061;51.954;6.996;2023-03-01T00:39:48;-1.60;99.90
39345;DHT22;25061;51.954;6.996;2023-03-01T00:42:13;-1.60;99.90
39345;DHT22;25061;51.954;6.996;2023-03-01T00:44:39;-1.60;99.90
39345;DHT22;25061;51.954;6.996;2023-03-01T00:47:04;-1.60;99.90
39345;DHT22;25061;51.954;6.996;2023-03-01T00:49:30;-1.60;99.90
39345;DHT22;25061;51.954;6.996;2023-03-01T00:51:56;-1.80;99.90
39345;DHT22;25061;51.954;6.996;2023-03-01T00:54:21;-1.80;99.90
39345;DHT22;25061;51.954;6.996;2023-03-01T00:56:52;-1.70;99.90
39345;DHT22;25061;51.954;6.996;2023-03-01T00:59:17;-1.70;99.90
39345;DHT22;25061;51.954;6.996;2023-03-01T01:01:43;-1.80;99.90
39345;DHT22;25061;51.954;6.996;2023-03-01T01:04:12;-1.80;99.90
39345;DHT22;25061;51.954;6.996;2023-03-01T01:06:40;-1.80;99.90
39345;DHT22;25061;51.954;6.996;2023-03-01T01:09:09;-1.80;99.90
39345;DHT22;25061;51.954;6.996;2023-03-01T01:11:35;-1.90;99.90
39345;DHT22;25061;51.954;6.996;2023-03-01T01:14:02;-2.00;99.90
39345;DHT22;25061;51.954;6.996;2023-03-01T01:16:29;-2.00;99.90
39345;DHT22;25061;51.954;6.996;2023-03-01T01:18:56;-1.90;99.90
39345;DHT22;25061;51.954;6.996;2023-03-01T01:21:23;-2.00;99.90
39345;DHT22;25061;51.954;6.996;2023-03-01T01:23:50;-2.10;99.90
39345;DHT22;25061;51.954;6.996;2023-03-01T01:26:22;-2.00;99.90
39345;DHT22;25061;51.954;6.996;2023-03-01T01:28:47;-2.00;99.90
39345;DHT22;25061;51.954;6.996;2023-03-01T01:31:13;-2.20;99.90
39345;DHT22;25061;51.954;6.996;2023-03-01T01:33:39;-2.10;99.90
39345;DHT22;25061;51.954;6.996;2023-03-01T01:36:06;-2.10;99.90
39345;DHT22;25061;51.954;6.996;2023-03-01T01:38:32;-2.00;99.90
39345;DHT22;25061;51.954;6.996;2023-03-01T01:40:59;-2.00;99.90
39345;DHT22;25061;51.954;6.996;2023-03-01T01:43:33;-2.00;99.90
39345;DHT22;25061;51.954;6.996;2023-03-01T01:46:02;-2.00;99.90
39345;DHT22;25061;51.954;6.996;2023-03-01T01:48:37;-2.00;99.90
39345;DHT22;25061;51.954;6.996;2023-03-01T01:51:08;-2.00;99.90
39345;DHT22;25061;51.954;6.996;2023-03-01T01:53:35;-2.00;99.90
39345;DHT22;25061;51.954;6.996;2023-03-01T01:56:02;-2.10;99.90
39345;DHT22;25061;51.954;6.996;2023-03-01T01:58:29;-2.10;99.90
39345;DHT22;25061;51.954;6.996;2023-03-01T02:00:55;-2.10;99.90
39345;DHT22;25061;51.954;6.996;2023-03-01T02:03:27;-2.10;99.90
39345;DHT22;25061;51.954;6.996;2023-03-01T02:05:59;-2.10;99.90
39345;DHT22;25061;51.954;6.996;2023-03-01T02:08:29;-2.10;99.90
39345;DHT22;25061;51.954;6.996;2023-03-01T02:10:56;-2.10;99.90
39345;DHT22;25061;51.954;6.996;2023-03-01T02:13:23;-2.00;99.90
39345;DHT22;25061;51.954;6.996;2023-03-01T02:15:48;-2.10;99.90
39345;DHT22;25061;51.954;6.996;2023-03-01T02:18:17;-2.20;99.90
39345;DHT22;25061;51.954;6.996;2023-03-01T02:23:30;-2.20;99.90
39345;DHT22;25061;51.954;6.996;2023-03-01T02:26:10;-2.30;99.90
39345;DHT22;25061;51.954;6.996;2023-03-01T02:28:40;-2.30;99.90
39345;DHT22;25061;51.954;6.996;2023-03-01T02:31:09;-2.30;99.90
39345;DHT22;25061;51.954;6.996;2023-03-01T02:33:54;-2.40;99.90
39345;DHT22;25061;51.954;6.996;2023-03-01T02:36:32;-2.40;99.90
39345;DHT22;25061;51.954;6.996;2023-03-01T02:39:02;-2.40;99.90
39345;DHT22;25061;51.954;6.996;2023-03-01T02:41:30;-2.30;99.90
39345;DHT22;25061;51.954;6.996;2023-03-01T02:43:57;-2.30;99.90
39345;DHT22;25061;51.954;6.996;2023-03-01T02:46:24;-2.40;99.90
39345;DHT22;25061;51.954;6.996;2023-03-01T02:48:53;-2.70;99.90
39345;DHT22;25061;51.954;6.996;2023-03-01T02:51:25;-2.50;99.90
39345;DHT22;25061;51.954;6.996;2023-03-01T02:54:12;-2.50;99.90
39345;DHT22;25061;51.954;6.996;2023-03-01T02:56:41;-2.40;99.90
39345;DHT22;25061;51.954;6.996;2023-03-01T02:59:08;-2.50;99.90
39345;DHT22;25061;51.954;6.996;2023-03-01T03:01:35;-2.50;99.90
39345;DHT22;25061;51.954;6.996;2023-03-01T03:04:09;-2.50;99.90
39345;DHT22;25061;51.954;6.996;2023-03-01T03:06:35;-2.40;99.90
39345;DHT22;25061;51.954;6.996;2023-03-01T03:09:02;-2.40;99.90
39345;DHT22;25061;51.954;6.996;2023-03-01T03:11:27;-2.40;99.90
39345;DHT22;25061;51.954;6.996;2023-03-01T03:13:53;-2.60;99.90
39345;DHT22;25061;51.954;6.996;2023-03-01T03:16:19;-2.80;99.90
39345;DHT22;25061;51.954;6.996;2023-03-01T03:18:45;-2.70;99.90
39345;DHT22;25061;51.954;6.996;2023-03-01T03:21:12;-2.70;99.90
39345;DHT22;25061;51.954;6.996;2023-03-01T03:23:38;-2.70;99.90
39345;DHT22;25061;51.954;6.996;2023-03-01T03:26:04;-2.70;99.90
39345;DHT22;25061;51.954;6.996;2023-03-01T03:28:34;-2.70;99.90
39345;DHT22;25061;51.954;6.996;2023-03-01T03:31:00;-2.70;99.90
39345;DHT22;25061;51.954;6.996;2023-03-01T03:33:32;-2.60;99.90
39345;DHT22;25061;51.954;6.996;2023-03-01T03:35:58;-2.70;99.90
39345;DHT22;25061;51.954;6.996;2023-03-01T03:38:24;-2.70;99.90
39345;DHT22;25061;51.954;6.996;2023-03-01T03:41:04;-2.70;99.90
39345;DHT22;25061;51.954;6.996;2023-03-01T03:43:32;-2.70;99.90
39345;DHT22;25061;51.954;6.996;2023-03-01T03:45:58;-2.70;99.90
39345;DHT22;25061;51.954;6.996;2023-03-01T03:48:24;-2.60;99.90
39345;DHT22;25061;51.954;6.996;2023-03-01T03:50:52;-2.60;99.90
39345;DHT22;25061;51.954;6.996;2023-03-01T03:53:19;-2.70;99.90
39345;DHT22;25061;51.954;6.996;2023-03-01T03:55:45;-2.60;99.90
39345;DHT22;25061;51.954;6.996;2023-03-01T03:58:11;-2.60;99.90
